KLAR/LAR METAR and TAF weather

Enter ICAO airport designator
Station Type Date Time Source
KLAR METAR 2019/04/24 15:53 UTC NOAA

KLAR 241553Z AUTO 17005KT 10SM OVC095 11/03 A3009 RMK AO2 SLP133 T01060028 $


Station Type Date Time Source
KLAR Decoded METAR 2019/04/24 15:53 UTC NOAA

LARAMIE REGIONAL AIRPORT, WY, United States (KLAR) 41-19N 105-40W 2216M
Apr 24, 2019 - 11:53 AM EDT / 2019.04.24 1553 UTC
Wind: from the S (170 degrees) at 6 MPH (5 KT):0
Visibility: 10 mile(s):0
Sky conditions: overcast
Temperature: 51.1 F (10.6 C)
Dew Point: 37.0 F (2.8 C)
Relative Humidity: 58%
Pressure (altimeter): 30.09 in. Hg (1018 hPa)
ob: KLAR 241553Z AUTO 17005KT 10SM OVC095 11/03 A3009 RMK AO2 SLP133 T01060028
cycle: 16

Station Type Date Time Source
KLAR TAF 2019/04/24 12:22 UTC NOAA

TAF KLAR 241120Z 2412/2512 25008KT P6SM SCT100
FM241800 29010G20KT P6SM BKN150
FM242200 29012KT P6SM SCT050 BKN090
FM250100 31015KT P6SM BKN050
FM250600 31006KT P6SM VCSH OVC025

Example: see airport list